KRTS

Reno / Stead Airport

Reno, Nevada, USA
METAR KRTS 242055Z AUTO VRB04KT 10SM CLR 22/M07 A3009 RMK AO2
Observed Flight Rules
Sep-24 @ 20:55 UTC (28 minutes ago) Visual Flight Rules
Wind Visibility Clouds
Variable at 4 knots 10 miles
  • Clear skies
Temperatures Readings
Current 22°C / 72°F
Dewpoint -7°C / 19°F
Humidity 14%
Altimeter 30.09" Hg
Pressure 1019 hPa
Elevation 1540
METAR KRTS 242055Z AUTO VRB04KT 10SM CLR 22/M07 A3009 RMK AO2
Observed Flight Rules
Sep-24 @ 20:55 UTC
(28 minutes ago)
VFR
Wind Visibility
Variable at 4 knots 10 miles
Clouds
  • Clear skies
Temperature Dewpoint
22°C / 72°F -7°C / 19°F
Humidity Altimeter Pressure
14% 30.09" Hg 1019 hPa